createdAt,value
2019-04-16T00:01:54.305Z,5.30
2019-04-16T00:04:27.210Z,5.22
2019-04-16T00:06:57.417Z,5.67
2019-04-16T00:09:27.622Z,6.00
2019-04-16T00:12:00.369Z,6.12
2019-04-16T00:14:30.548Z,5.65
2019-04-16T00:16:59.028Z,5.85
2019-04-16T00:19:27.614Z,5.72
2019-04-16T00:21:57.748Z,5.85
2019-04-16T00:24:27.934Z,4.45
2019-04-16T00:26:59.316Z,5.40
2019-04-16T00:29:26.698Z,5.33
2019-04-16T00:31:56.700Z,5.15
2019-04-16T00:34:25.244Z,4.75
2019-04-16T00:36:53.704Z,4.92
2019-04-16T00:39:24.811Z,4.97
2019-04-16T00:41:52.473Z,4.62
2019-04-16T00:44:21.019Z,5.67
2019-04-16T00:46:49.426Z,5.47
2019-04-16T00:49:18.001Z,5.30
2019-04-16T00:51:46.404Z,4.50
2019-04-16T00:54:14.994Z,5.08
2019-04-16T00:56:43.613Z,5.17
2019-04-16T00:59:13.588Z,5.05
2019-04-16T01:01:42.151Z,4.90
2019-04-16T01:04:10.705Z,4.28
2019-04-16T01:06:40.650Z,4.45
2019-04-16T01:09:09.444Z,4.45
2019-04-16T01:11:37.869Z,4.17
2019-04-16T01:14:06.480Z,3.98
2019-04-16T01:16:34.862Z,3.80
2019-04-16T01:19:09.554Z,4.20
2019-04-16T01:21:36.596Z,3.47
2019-04-16T01:24:05.131Z,3.67
2019-04-16T01:26:33.524Z,4.05
2019-04-16T01:29:09.401Z,3.62
2019-04-16T01:31:45.151Z,3.80
2019-04-16T01:34:31.572Z,3.33
2019-04-16T01:37:20.252Z,3.77
2019-04-16T01:39:53.024Z,3.72
2019-04-16T01:42:23.570Z,3.33
2019-04-16T01:44:51.780Z,4.03
2019-04-16T01:47:20.266Z,4.10
2019-04-16T01:49:48.807Z,3.80
2019-04-16T01:52:19.057Z,4.33
2019-04-16T01:54:47.373Z,3.90
2019-04-16T01:57:15.912Z,4.08
2019-04-16T01:59:44.392Z,3.77
2019-04-16T02:02:16.029Z,3.87
2019-04-16T02:04:44.568Z,3.40
2019-04-16T02:07:13.133Z,3.95
2019-04-16T02:09:41.568Z,3.98
2019-04-16T02:12:12.758Z,4.20
2019-04-16T02:14:40.311Z,4.42
2019-04-16T02:17:08.851Z,4.92
2019-04-16T02:19:37.408Z,4.20
2019-04-16T02:22:06.015Z,3.87
2019-04-16T02:24:34.570Z,3.42
2019-04-16T02:27:03.124Z,4.28
2019-04-16T02:29:31.536Z,3.50
2019-04-16T02:32:00.100Z,3.67
2019-04-16T02:34:28.480Z,3.22
2019-04-16T02:37:00.517Z,3.30
2019-04-16T02:39:46.501Z,3.33
2019-04-16T02:41:58.545Z,3.40
2019-04-16T02:44:27.263Z,3.25
2019-04-16T02:46:55.805Z,3.37
2019-04-16T02:49:25.175Z,3.47
2019-04-16T02:52:01.268Z,3.40
2019-04-16T02:54:33.995Z,3.40
2019-04-16T02:57:06.104Z,3.67
2019-04-16T02:59:45.762Z,3.98
2019-04-16T03:02:16.930Z,3.67
2019-04-16T03:04:59.029Z,2.98
2019-04-16T03:07:28.231Z,2.77
2019-04-16T03:10:01.372Z,3.35
2019-04-16T03:12:26.842Z,4.40
2019-04-16T03:14:55.378Z,4.10
2019-04-16T03:17:28.409Z,3.08
2019-04-16T03:19:58.562Z,3.55
2019-04-16T03:22:27.008Z,3.55
2019-04-16T03:24:55.557Z,3.50
2019-04-16T03:27:23.985Z,3.33
2019-04-16T03:29:52.521Z,4.37
2019-04-16T03:32:21.009Z,3.70
2019-04-16T03:34:50.559Z,4.87
2019-04-16T03:37:19.571Z,4.30
2019-04-16T03:39:48.087Z,3.87
2019-04-16T03:42:16.634Z,3.80
2019-04-16T03:44:45.193Z,3.72
2019-04-16T03:47:18.812Z,3.80
2019-04-16T03:49:45.661Z,3.72
2019-04-16T03:52:14.066Z,4.30
2019-04-16T03:54:42.623Z,3.85
2019-04-16T03:57:11.180Z,3.85
2019-04-16T03:59:40.695Z,4.00
2019-04-16T04:04:37.082Z,5.75
2019-04-16T04:07:05.618Z,4.92
2019-04-16T04:09:34.236Z,4.80
2019-04-16T04:12:02.710Z,5.45
2019-04-16T04:14:31.203Z,6.70
2019-04-16T04:17:05.434Z,5.60
2019-04-16T04:19:30.493Z,6.05
2019-04-16T04:21:59.002Z,6.20
2019-04-16T04:24:28.541Z,6.15
2019-04-16T04:26:57.693Z,7.33
2019-04-16T04:29:27.889Z,6.47
2019-04-16T04:31:56.504Z,5.95
2019-04-16T04:34:24.984Z,5.65
2019-04-16T04:36:58.851Z,5.95
2019-04-16T04:39:24.201Z,5.37
2019-04-16T04:41:56.276Z,4.95
2019-04-16T04:44:23.002Z,4.67
2019-04-16T04:46:51.549Z,5.30
2019-04-16T04:49:20.021Z,5.60
2019-04-16T04:51:48.587Z,5.55
2019-04-16T04:54:21.728Z,5.53
2019-04-16T04:56:47.391Z,5.65
2019-04-16T04:59:15.847Z,4.92
2019-04-16T05:01:44.400Z,5.25
2019-04-16T05:04:18.934Z,4.78
2019-04-16T05:06:46.288Z,4.65
2019-04-16T05:09:14.788Z,5.15
2019-04-16T05:11:43.365Z,5.95
2019-04-16T05:14:11.846Z,5.00
2019-04-16T05:16:40.847Z,4.28
2019-04-16T05:19:13.834Z,5.17
2019-04-16T05:21:39.640Z,4.37
2019-04-16T05:24:08.084Z,4.00
2019-04-16T05:26:37.365Z,3.70
2019-04-16T05:29:16.104Z,3.92
2019-04-16T05:31:45.940Z,3.70
2019-04-16T05:34:17.212Z,3.70
2019-04-16T05:36:50.188Z,4.00
2019-04-16T05:39:20.513Z,3.85
2019-04-16T05:41:50.529Z,4.25
2019-04-16T05:44:19.486Z,4.90
2019-04-16T05:46:49.753Z,3.58
2019-04-16T05:49:18.570Z,4.60
2019-04-16T05:51:47.076Z,4.22
2019-04-16T05:54:21.706Z,3.98
2019-04-16T05:56:55.475Z,4.37
2019-04-16T05:59:23.552Z,4.72
2019-04-16T06:02:02.315Z,6.47
2019-04-16T06:04:30.879Z,4.60
2019-04-16T06:07:08.434Z,3.60
2019-04-16T06:09:46.036Z,4.08
2019-04-16T06:12:27.393Z,4.12
2019-04-16T06:15:00.607Z,4.17
2019-04-16T06:17:47.356Z,4.53
2019-04-16T06:20:23.547Z,4.15
2019-04-16T06:23:00.584Z,4.20
2019-04-16T06:25:34.022Z,3.62
2019-04-16T06:28:19.188Z,3.67
2019-04-16T06:31:09.918Z,4.05
2019-04-16T06:33:40.370Z,4.62
2019-04-16T06:36:13.196Z,4.28
2019-04-16T06:38:48.890Z,3.77
2019-04-16T06:41:41.852Z,3.55
2019-04-16T06:44:07.271Z,3.87
2019-04-16T06:46:46.653Z,4.22
2019-04-16T06:49:17.647Z,4.22
2019-04-16T06:52:19.178Z,4.47
2019-04-16T06:54:55.324Z,4.10
2019-04-16T06:57:49.474Z,4.87
2019-04-16T07:00:36.241Z,4.10
2019-04-16T07:03:12.386Z,5.03
2019-04-16T07:05:48.262Z,3.90
2019-04-16T07:08:36.955Z,3.83
2019-04-16T07:10:56.032Z,3.62
2019-04-16T07:13:24.589Z,3.30
2019-04-16T07:15:53.340Z,3.40
2019-04-16T07:18:23.315Z,3.50
2019-04-16T07:20:51.798Z,3.52
2019-04-16T07:23:24.313Z,7.58
2019-04-16T07:25:50.556Z,4.92
2019-04-16T07:28:32.292Z,5.70
2019-04-16T07:31:32.692Z,5.30
2019-04-16T07:33:49.093Z,4.78
2019-04-16T07:36:24.155Z,4.83
2019-04-16T07:39:09.141Z,7.53
2019-04-16T07:42:08.640Z,4.58
2019-04-16T07:44:44.027Z,4.42
2019-04-16T07:47:14.454Z,3.83
2019-04-16T07:49:44.639Z,6.37
2019-04-16T07:52:31.172Z,4.28
2019-04-16T07:55:03.989Z,3.98
2019-04-16T07:57:32.548Z,4.17
2019-04-16T08:00:01.030Z,5.45
2019-04-16T08:02:29.520Z,4.53
2019-04-16T08:04:58.020Z,3.58
2019-04-16T08:07:28.189Z,3.90
2019-04-16T08:10:01.711Z,4.55
2019-04-16T08:12:30.285Z,2.87
2019-04-16T08:14:56.926Z,3.15
2019-04-16T08:17:25.451Z,3.10
2019-04-16T08:19:55.819Z,2.70
2019-04-16T08:22:24.171Z,3.45
2019-04-16T08:25:02.985Z,3.95
2019-04-16T08:27:29.926Z,3.10
2019-04-16T08:30:02.126Z,2.70
2019-04-16T08:32:28.667Z,2.95
2019-04-16T08:34:57.135Z,2.95
2019-04-16T08:37:25.769Z,2.42
2019-04-16T08:39:54.270Z,2.58
2019-04-16T08:42:25.678Z,2.65
2019-04-16T08:44:52.872Z,2.90
2019-04-16T08:47:21.549Z,2.52
2019-04-16T08:49:53.625Z,3.80
2019-04-16T08:52:20.422Z,2.80
2019-04-16T08:54:50.382Z,3.20
2019-04-16T08:57:19.176Z,2.45
2019-04-16T08:59:47.736Z,2.65
2019-04-16T09:02:16.337Z,1.90
2019-04-16T09:04:44.990Z,3.00
2019-04-16T09:07:19.476Z,2.90
2019-04-16T09:09:47.035Z,2.77
2019-04-16T09:12:15.708Z,1.80
2019-04-16T09:14:45.719Z,2.42
2019-04-16T09:17:15.823Z,3.65
2019-04-16T09:19:48.710Z,2.45
2019-04-16T09:22:17.306Z,3.00
2019-04-16T09:24:47.519Z,2.03
2019-04-16T09:27:28.675Z,1.90
2019-04-16T09:30:16.911Z,1.72
2019-04-16T09:32:50.082Z,2.27
2019-04-16T09:35:23.263Z,2.37
2019-04-16T09:37:53.386Z,1.95
2019-04-16T09:40:37.969Z,2.80
2019-04-16T09:43:17.545Z,2.33
2019-04-16T09:45:41.286Z,2.60
2019-04-16T09:48:09.770Z,2.12
2019-04-16T09:50:42.943Z,2.37
2019-04-16T09:53:08.463Z,2.37
2019-04-16T09:55:37.022Z,2.10
2019-04-16T09:58:07.215Z,2.47
2019-04-16T10:00:37.352Z,2.20
2019-04-16T10:03:19.445Z,2.33
2019-04-16T10:05:47.938Z,2.85
2019-04-16T10:08:16.436Z,2.52
2019-04-16T10:10:45.068Z,2.77
2019-04-16T10:13:13.592Z,2.47
2019-04-16T10:15:42.218Z,2.92
2019-04-16T10:18:10.765Z,2.95
2019-04-16T10:20:40.474Z,2.93
2019-04-16T10:23:10.661Z,3.55
2019-04-16T10:25:39.169Z,4.90
2019-04-16T10:28:09.279Z,3.75
2019-04-16T10:30:39.407Z,4.20
2019-04-16T10:33:08.017Z,3.30
2019-04-16T10:35:36.609Z,3.35
2019-04-16T10:38:06.765Z,3.00
2019-04-16T10:40:40.335Z,2.60
2019-04-16T10:43:26.991Z,2.02
2019-04-16T10:45:57.097Z,1.90
2019-04-16T10:48:29.965Z,2.80
2019-04-16T10:51:00.174Z,1.98
2019-04-16T10:53:36.341Z,2.12
2019-04-16T10:56:12.409Z,2.67
2019-04-16T10:58:58.929Z,2.30
2019-04-16T11:01:38.400Z,1.98
2019-04-16T11:04:25.289Z,1.98
2019-04-16T11:07:10.324Z,2.20
2019-04-16T11:09:39.190Z,2.65
2019-04-16T11:12:07.729Z,1.87
2019-04-16T11:14:36.189Z,2.17
2019-04-16T11:17:04.839Z,2.20
2019-04-16T11:19:33.790Z,2.55
2019-04-16T11:22:04.015Z,2.60
2019-04-16T11:24:32.582Z,3.12
2019-04-16T11:27:01.037Z,4.03
2019-04-16T11:29:29.592Z,5.05
2019-04-16T11:31:58.166Z,2.83
2019-04-16T11:34:26.640Z,3.40
2019-04-16T11:36:58.279Z,4.17
2019-04-16T11:39:25.479Z,3.15
2019-04-16T11:41:54.029Z,5.03
2019-04-16T11:44:22.563Z,4.60
2019-04-16T11:46:51.239Z,3.20
2019-04-16T11:49:21.313Z,3.77
2019-04-16T11:51:50.055Z,3.30
2019-04-16T11:54:18.731Z,5.80
2019-04-16T11:56:47.268Z,3.27
2019-04-16T11:59:15.834Z,3.40
2019-04-16T12:01:46.051Z,3.27
2019-04-16T12:04:21.870Z,2.77
2019-04-16T12:07:08.459Z,3.85
2019-04-16T12:09:44.591Z,2.72
2019-04-16T12:12:17.398Z,4.03
2019-04-16T12:14:53.427Z,2.52
2019-04-16T12:17:23.520Z,2.58
2019-04-16T12:19:53.736Z,3.02
2019-04-16T12:22:29.865Z,2.67
2019-04-16T12:25:16.032Z,2.47
2019-04-16T12:27:49.210Z,2.80
2019-04-16T12:30:31.559Z,6.53
2019-04-16T12:33:07.862Z,4.90
2019-04-16T12:35:39.604Z,2.50
2019-04-16T12:38:13.141Z,2.25
2019-04-16T12:40:42.269Z,3.37
2019-04-16T12:43:16.010Z,3.50
2019-04-16T12:45:56.484Z,3.62
2019-04-16T12:48:35.483Z,3.22
2019-04-16T12:53:53.083Z,2.77
2019-04-16T12:56:25.300Z,2.77
2019-04-16T12:59:07.619Z,2.60
2019-04-16T13:01:52.899Z,2.60
2019-04-16T13:04:29.104Z,3.12
2019-04-16T13:07:08.204Z,3.70
2019-04-16T13:09:47.514Z,3.67
2019-04-16T13:12:26.721Z,3.45
2019-04-16T13:15:12.108Z,3.00
2019-04-16T13:17:42.235Z,2.50
2019-04-16T13:20:29.529Z,2.90
2019-04-16T13:23:00.395Z,3.40
2019-04-16T13:25:30.527Z,3.17
2019-04-16T13:27:59.117Z,4.17
2019-04-16T13:30:27.676Z,2.85
2019-04-16T13:32:56.192Z,2.52
2019-04-16T13:35:24.679Z,4.50
2019-04-16T13:37:53.211Z,3.00
2019-04-16T13:40:21.944Z,3.62
2019-04-16T13:42:50.524Z,3.37
2019-04-16T13:45:31.878Z,2.80
2019-04-16T13:48:14.784Z,3.52
2019-04-16T13:50:41.017Z,7.55
2019-04-16T13:53:10.612Z,3.67
2019-04-16T13:55:41.708Z,3.22
2019-04-16T13:58:15.502Z,3.70
2019-04-16T14:00:45.681Z,4.30
2019-04-16T14:03:23.852Z,2.80
2019-04-16T14:05:52.118Z,2.70
2019-04-16T14:08:20.797Z,4.87
2019-04-16T14:10:49.397Z,3.45
2019-04-16T14:13:17.894Z,4.22
2019-04-16T14:15:46.463Z,2.70
2019-04-16T14:18:14.985Z,4.53
2019-04-16T14:20:43.650Z,3.90
2019-04-16T14:23:12.162Z,3.00
2019-04-16T14:25:40.656Z,3.03
2019-04-16T14:28:09.233Z,2.80
2019-04-16T14:30:42.715Z,3.23
2019-04-16T14:33:12.238Z,2.50
2019-04-16T14:35:40.817Z,2.95
2019-04-16T14:38:09.602Z,2.27
2019-04-16T14:40:39.678Z,2.90
2019-04-16T14:43:08.868Z,3.27
2019-04-16T14:45:57.428Z,4.80
2019-04-16T14:48:14.791Z,5.90
2019-04-16T14:50:43.300Z,4.78
2019-04-16T14:53:13.606Z,4.13
2019-04-16T14:55:59.887Z,3.92
2019-04-16T14:58:36.895Z,5.08
2019-04-16T15:01:13.442Z,3.67
2019-04-16T15:03:49.993Z,4.03
2019-04-16T15:06:26.482Z,3.50
2019-04-16T15:08:57.005Z,3.80
2019-04-16T15:11:39.187Z,4.10
2019-04-16T15:14:12.641Z,6.50
2019-04-16T15:16:50.721Z,4.30
2019-04-16T15:19:32.680Z,3.75
2019-04-16T15:22:19.386Z,4.50
2019-04-16T15:25:05.997Z,4.70
2019-04-16T15:27:36.223Z,4.87
2019-04-16T15:30:11.831Z,4.20
2019-04-16T15:32:41.955Z,5.83
2019-04-16T15:35:28.679Z,6.83
2019-04-16T15:38:04.867Z,6.17
2019-04-16T15:40:39.342Z,5.75
2019-04-16T15:43:12.944Z,5.30
2019-04-16T15:45:52.172Z,6.12
2019-04-16T15:48:34.412Z,4.60
2019-04-16T15:51:13.922Z,4.95
2019-04-16T15:53:47.728Z,6.78
2019-04-16T15:56:17.015Z,4.72
2019-04-16T15:58:47.258Z,4.80
2019-04-16T16:01:34.118Z,5.60
2019-04-16T16:04:13.630Z,4.22
2019-04-16T16:09:13.292Z,14.15
2019-04-16T16:11:59.897Z,6.58
2019-04-16T16:14:33.044Z,5.35
2019-04-16T16:16:58.696Z,4.92
2019-04-16T16:19:27.209Z,5.42
2019-04-16T16:21:55.793Z,6.37
2019-04-16T16:24:24.298Z,4.28
2019-04-16T16:26:52.865Z,3.92
2019-04-16T16:29:21.455Z,4.72
2019-04-16T16:31:49.970Z,5.35
2019-04-16T16:34:18.490Z,5.92
2019-04-16T16:36:47.020Z,5.22
2019-04-16T16:39:15.662Z,4.10
2019-04-16T16:41:46.906Z,4.30
2019-04-16T16:44:15.491Z,11.85
2019-04-16T16:46:57.226Z,7.42
2019-04-16T16:49:23.837Z,5.08
2019-04-16T16:52:10.599Z,4.42
2019-04-16T16:54:42.699Z,5.75
2019-04-16T16:57:15.841Z,5.33
2019-04-16T16:59:50.542Z,5.00
2019-04-16T17:02:32.500Z,5.30
2019-04-16T17:05:02.949Z,6.10
2019-04-16T17:07:32.036Z,4.67
2019-04-16T17:10:02.169Z,5.15
2019-04-16T17:12:32.335Z,6.05
2019-04-16T17:15:00.975Z,5.37
2019-04-16T17:17:32.113Z,5.87
2019-04-16T17:20:02.137Z,5.72
2019-04-16T17:22:30.641Z,5.28
2019-04-16T17:24:59.221Z,5.30
2019-04-16T17:27:28.792Z,5.28
2019-04-16T17:32:26.759Z,5.40
2019-04-16T17:34:55.513Z,5.67
2019-04-16T17:37:27.820Z,5.42
2019-04-16T17:39:57.047Z,7.20
2019-04-16T17:42:26.980Z,6.03
2019-04-16T17:45:13.234Z,6.95
2019-04-16T17:47:55.729Z,8.83
2019-04-16T17:50:39.213Z,7.33
2019-04-16T17:53:08.156Z,14.93
2019-04-16T17:55:56.711Z,8.10
2019-04-16T17:58:27.386Z,8.60
2019-04-16T18:01:16.059Z,8.55
2019-04-16T18:03:50.881Z,8.00
2019-04-16T18:06:26.875Z,9.45
2019-04-16T18:09:00.326Z,8.55
2019-04-16T18:11:47.047Z,7.03
2019-04-16T18:14:34.496Z,8.75
2019-04-16T18:17:04.746Z,9.45
2019-04-16T18:19:37.906Z,15.48
2019-04-16T18:22:23.200Z,9.68
2019-04-16T18:24:53.602Z,7.65
2019-04-16T18:27:29.190Z,8.98
2019-04-16T18:29:58.674Z,9.10
2019-04-16T18:32:45.346Z,8.65
2019-04-16T18:35:32.981Z,10.75
2019-04-16T18:38:03.431Z,8.00
2019-04-16T18:40:33.822Z,10.03
2019-04-16T18:43:16.110Z,9.73
2019-04-16T18:46:02.799Z,8.85
2019-04-16T18:48:32.957Z,9.10
2019-04-16T18:51:02.037Z,8.60
2019-04-16T18:53:30.578Z,9.30
2019-04-16T18:55:59.229Z,7.87
2019-04-16T18:58:27.737Z,7.92
2019-04-16T19:01:01.125Z,8.23
2019-04-16T19:03:29.639Z,7.40
2019-04-16T19:05:58.138Z,8.08
2019-04-16T19:08:40.927Z,8.78
2019-04-16T19:10:56.925Z,8.95
2019-04-16T19:13:25.411Z,8.25
2019-04-16T19:15:54.231Z,8.78
2019-04-16T19:18:22.804Z,9.00
2019-04-16T19:20:51.814Z,8.03
2019-04-16T19:23:22.204Z,7.80
2019-04-16T19:25:54.935Z,8.33
2019-04-16T19:28:22.705Z,10.18
2019-04-16T19:30:51.378Z,9.03
2019-04-16T19:33:20.873Z,7.30
2019-04-16T19:35:51.898Z,7.10
2019-04-16T19:38:19.634Z,7.03
2019-04-16T19:40:50.964Z,8.40
2019-04-16T19:43:18.379Z,9.48
2019-04-16T19:45:46.951Z,8.43
2019-04-16T19:48:17.962Z,7.83
2019-04-16T19:50:45.729Z,9.33
2019-04-16T19:53:15.124Z,7.80
2019-04-16T19:55:45.956Z,7.15
2019-04-16T19:58:14.030Z,7.92
2019-04-16T20:00:42.705Z,8.05
2019-04-16T20:03:11.188Z,7.90
2019-04-16T20:05:39.867Z,7.05
2019-04-16T20:08:08.380Z,6.90
2019-04-16T20:10:37.041Z,6.85
2019-04-16T20:13:05.630Z,6.92
2019-04-16T20:15:34.271Z,6.80
2019-04-16T20:18:06.147Z,6.72
2019-04-16T20:20:33.109Z,6.37
2019-04-16T20:23:01.632Z,6.67
2019-04-16T20:25:30.375Z,7.25
2019-04-16T20:27:58.906Z,7.00
2019-04-16T20:30:29.048Z,6.50
2019-04-16T20:32:57.579Z,6.75
2019-04-16T20:35:26.084Z,6.72
2019-04-16T20:37:55.185Z,7.70
2019-04-16T20:40:25.813Z,7.35
2019-04-16T20:42:54.267Z,8.00
2019-04-16T20:45:22.908Z,8.33
2019-04-16T20:47:51.485Z,8.28
2019-04-16T20:50:20.873Z,8.75
2019-04-16T20:52:50.138Z,8.90
2019-04-16T20:55:18.751Z,8.68
2019-04-16T20:57:47.314Z,9.33
2019-04-16T21:00:17.442Z,9.43
2019-04-16T21:02:48.207Z,8.28
2019-04-16T21:05:22.218Z,8.30
2019-04-16T21:07:47.261Z,8.40
2019-04-16T21:10:16.383Z,7.45
2019-04-16T21:12:45.351Z,7.45
2019-04-16T21:17:42.469Z,7.10
2019-04-16T21:20:10.906Z,6.90
2019-04-16T21:22:39.442Z,6.90
2019-04-16T21:25:12.618Z,6.17
2019-04-16T21:27:39.781Z,6.70
2019-04-16T21:30:12.777Z,6.55
2019-04-16T21:32:55.870Z,6.08
2019-04-16T21:35:31.696Z,6.33
2019-04-16T21:38:03.364Z,5.78
2019-04-16T21:40:32.179Z,5.65
2019-04-16T21:43:06.314Z,6.17
2019-04-16T21:45:30.945Z,5.95
2019-04-16T21:47:59.485Z,6.00
2019-04-16T21:50:27.886Z,5.90
2019-04-16T21:52:56.709Z,5.45
2019-04-16T21:55:25.303Z,5.93
2019-04-16T21:57:54.026Z,5.35
2019-04-16T22:00:39.253Z,5.12
2019-04-16T22:03:10.850Z,6.20
2019-04-16T22:05:39.605Z,5.60
2019-04-16T22:08:08.177Z,5.00
2019-04-16T22:10:36.546Z,6.05
2019-04-16T22:13:05.173Z,5.87
2019-04-16T22:15:33.718Z,5.60
2019-04-16T22:18:07.533Z,4.92
2019-04-16T22:20:35.683Z,5.47
2019-04-16T22:23:02.733Z,4.95
2019-04-16T22:25:31.309Z,5.17
2019-04-16T22:27:59.999Z,4.47
2019-04-16T22:30:28.613Z,4.70
2019-04-16T22:32:57.165Z,4.58
2019-04-16T22:35:25.632Z,4.95
2019-04-16T22:37:54.187Z,4.25
2019-04-16T22:40:27.169Z,4.60
2019-04-16T22:43:15.504Z,4.25
2019-04-16T22:45:51.993Z,3.75
2019-04-16T22:48:18.481Z,3.72
2019-04-16T22:50:46.887Z,3.85
2019-04-16T22:53:17.185Z,4.33
2019-04-16T22:55:45.645Z,3.20
2019-04-16T22:58:15.808Z,4.10
2019-04-16T23:00:47.403Z,4.00
2019-04-16T23:03:16.617Z,3.42
2019-04-16T23:05:47.180Z,3.92
2019-04-16T23:08:15.743Z,3.40
2019-04-16T23:10:44.139Z,3.67
2019-04-16T23:13:12.684Z,3.87
2019-04-16T23:15:42.285Z,3.52
2019-04-16T23:18:10.812Z,4.17
2019-04-16T23:20:40.931Z,3.92
2019-04-16T23:23:09.478Z,3.47
2019-04-16T23:25:37.936Z,4.17
2019-04-16T23:28:09.508Z,3.25
2019-04-16T23:30:36.618Z,3.15
2019-04-16T23:33:05.468Z,3.52
2019-04-16T23:35:34.137Z,2.85
2019-04-16T23:38:02.741Z,3.40
2019-04-16T23:40:31.313Z,3.15
2019-04-16T23:43:04.166Z,3.42
2019-04-16T23:45:34.347Z,2.70
2019-04-16T23:48:07.415Z,3.52
2019-04-16T23:50:44.911Z,3.25
2019-04-16T23:53:12.136Z,3.50
2019-04-16T23:56:00.729Z,3.55
2019-04-16T23:58:30.790Z,2.87
